Details From VIDP - INDIRA GANDHI INTL
To VNKT - Kathmandu Tribhuvan Intl
Flight Number -
Tags decoded
Created
Modified
Stats Distance 474 nm / 879 km
Max Altitude 0 ft / 0 m
Waypoints 4
Social Downloads 9
Likes 0
Share VATSIM

Download

Looking for another format? Having issues loading an existing format? Contact us
Advertisement - Login to hide

Notes

Requested: VIDP LAPOT ALI R460 LKN G598 PARSA SMR VNKT Unmatched points: LAPOT R460 LKN G598 PARSA

Route

VIDP ALI SMR VNKT

ID Type Via Altitude Latitude Longitude Leg Dist Tot Dist Heading (true) Name
O VIDP APT - 0 ft / 0 m 28.56650˚ 77.10309˚ - 0 nm - INDIRA GANDHI INTL
ALI VOR - 0 ft / 0 m 27.82931˚ 78.17833˚ 72 nm 72 nm 128° / 128° ALIGARH VOR-DME
SMR VOR - 0 ft / 0 m 27.16417˚ 84.98222˚ 364 nm 436 nm 95° / 98° SIMARA VOR-DME
O VNKT APT - 0 ft / 0 m 27.69658˚ 85.35910˚ 37 nm 474 nm 32° / 32° Kathmandu Tribhuvan Intl

Altitude Profile

Advertisement - Login to hide

Weather


0- 5 10 15 20 25 30 35+ Temperature / ° C

Clouds and Precipitation
Forecast for 2018-05-24 06:00 UTC. Updated 3 hours ago

Ground ~20,000 ft ~40,000 ft Winds

VIDP

Details ICAO VIDP (DEL)
Name INDIRA GANDHI INTL
Region India
Timezone Asia/Kolkata (UTC+5.5)
Stats Elevation 777 ft / 237 m (AMSL)
Location 28.566496° 77.103090°
Runways 2
Magnetic Variation 1.243° E

METAR

VIDP 240800Z 36008KT 3500 DU SCT040 SCT100 43/10 Q1002 NOSIG

Decode

TAF

TAF VIDP 240800Z 2409/2418 35008KT 3500 DU SCT035 SCT100 TEMPO 2410/2414 27020G35KT 0800 DS TS FEW040CB SCT090

Decode

Departure Runways

ID Width Length Bearing (true) Bearing (mag) Surface Threshold Offset Overrun Length
09 150 ft / 46 m 9,270 ft / 2,826 m 91.50° 90.26° Asphalt 0 ft / 0 m 195 ft / 59 m
10 150 ft / 46 m 12,488 ft / 3,807 m 104.67° 103.43° Asphalt 0 ft / 0 m 880 ft / 268 m
27 150 ft / 46 m 9,270 ft / 2,826 m 271.52° 270.28° Asphalt 499 ft / 152 m 0 ft / 0 m
28 150 ft / 46 m 12,488 ft / 3,807 m 284.69° 283.45° Asphalt 0 ft / 0 m 470 ft / 143 m

VNKT

Details ICAO VNKT (KTM)
Name Kathmandu Tribhuvan Intl
Region Nepal
Timezone Asia/Kathmandu (UTC+5.8)
Stats Elevation 4,390 ft / 1,338 m (AMSL)
Location 27.696583° 85.359100°
Runways 1
Magnetic Variation 0.514° E

METAR

VNKT 240820Z 24005KT 8000 FEW015 28/18 Q1011 NOSIG

Decode

TAF

TAF VNKT 240500Z 2406/2506 16004KT 5000 BR FEW015 SCT100 BECMG 2407/2408 23008KT 7000 FEW020 SCT100 PROB30 2408/2414 VRB10KT 4000 -TSRA FEW025CB SCT030 BKN100 BECMG 2414/2415 VRB03KT 6000 FEW015 SCT030 BKN100 PROB40 2414/2418 VRB08KT 4000 -TSRA FEW025CB BECMG 2500/2502 VRB02KT 3000 BR FEW010 SCT030 BKN100 BECMG 2504/2505 12004KT 6000 FEW015 SCT030

Decode

Destination Runways

ID Width Length Bearing (true) Bearing (mag) Surface Threshold Offset Overrun Length
02 148 ft / 45 m 10,017 ft / 3,053 m 21.50° 20.99° Asphalt 0 ft / 0 m 0 ft / 0 m
20 148 ft / 45 m 10,017 ft / 3,053 m 201.51° 201.00° Asphalt 400 ft / 122 m 0 ft / 0 m

Popular Alternatives